createdAt,value
2017-03-31T00:00:53.059Z,78
2017-03-31T00:01:53.372Z,81
2017-03-31T00:02:53.034Z,79
2017-03-31T00:03:53.026Z,78
2017-03-31T00:04:53.327Z,80
2017-03-31T00:05:53.638Z,81
2017-03-31T00:06:53.302Z,79
2017-03-31T00:07:53.288Z,81
2017-03-31T00:08:53.301Z,83
2017-03-31T00:09:53.259Z,77
2017-03-31T00:10:52.938Z,79
2017-03-31T00:11:53.300Z,81
2017-03-31T00:12:52.920Z,81
2017-03-31T00:13:53.213Z,82
2017-03-31T00:14:53.199Z,81
2017-03-31T00:15:53.187Z,81
2017-03-31T00:16:53.182Z,81
2017-03-31T00:17:53.164Z,82
2017-03-31T00:18:53.463Z,83
2017-03-31T00:19:52.827Z,80
2017-03-31T00:20:53.137Z,81
2017-03-31T00:21:53.427Z,79
2017-03-31T00:22:53.415Z,83
2017-03-31T00:23:53.401Z,81
2017-03-31T00:24:53.279Z,80
2017-03-31T00:25:53.387Z,82
2017-03-31T00:26:53.056Z,82
2017-03-31T00:27:53.355Z,82
2017-03-31T00:28:53.341Z,80
2017-03-31T00:29:53.016Z,82
2017-03-31T00:30:53.364Z,80
2017-03-31T00:31:53.000Z,78
2017-03-31T00:32:53.285Z,83
2017-03-31T00:33:53.277Z,78
2017-03-31T00:34:53.266Z,78
2017-03-31T00:35:53.247Z,82
2017-03-31T00:36:53.240Z,84
2017-03-31T00:37:53.271Z,80
2017-03-31T00:38:52.895Z,80
2017-03-31T00:39:53.199Z,82
2017-03-31T00:40:53.380Z,80
2017-03-31T00:41:53.374Z,81
2017-03-31T00:42:53.160Z,80
2017-03-31T00:43:52.837Z,82
2017-03-31T00:44:52.829Z,79
2017-03-31T00:45:52.812Z,80
2017-03-31T00:46:52.799Z,82
2017-03-31T00:47:52.796Z,82
2017-03-31T00:48:53.085Z,80
2017-03-31T00:49:52.761Z,83
2017-03-31T00:50:52.437Z,82
2017-03-31T00:51:52.446Z,82
2017-03-31T00:52:52.724Z,80
2017-03-31T00:53:52.389Z,84
2017-03-31T00:54:52.067Z,83
2017-03-31T00:55:52.682Z,80
2017-03-31T00:56:52.665Z,84
2017-03-31T00:57:52.342Z,83
2017-03-31T00:58:52.641Z,79
2017-03-31T00:59:52.315Z,82
2017-03-31T01:00:52.306Z,81
2017-03-31T01:01:51.976Z,83
2017-03-31T01:02:52.584Z,83
2017-03-31T01:03:52.575Z,83
2017-03-31T01:04:52.561Z,84
2017-03-31T01:05:52.877Z,84
2017-03-31T01:06:52.540Z,82
2017-03-31T01:07:52.838Z,80
2017-03-31T01:08:52.512Z,83
2017-03-31T01:09:52.500Z,81
2017-03-31T01:10:52.485Z,83
2017-03-31T01:11:52.159Z,79
2017-03-31T01:12:52.773Z,82
2017-03-31T01:13:52.765Z,84
2017-03-31T01:14:52.438Z,84
2017-03-31T01:15:52.735Z,80
2017-03-31T01:16:52.723Z,81
2017-03-31T01:17:52.705Z,82
2017-03-31T01:18:52.709Z,81
2017-03-31T01:19:52.696Z,82
2017-03-31T01:20:52.673Z,82
2017-03-31T01:21:52.663Z,81
2017-03-31T01:22:52.642Z,84
2017-03-31T01:23:52.635Z,82
2017-03-31T01:24:52.297Z,81
2017-03-31T01:25:51.981Z,85
2017-03-31T01:26:52.274Z,85
2017-03-31T01:27:52.583Z,82
2017-03-31T01:28:52.565Z,81
2017-03-31T01:29:52.599Z,82
2017-03-31T01:30:52.576Z,84
2017-03-31T01:31:52.525Z,81
2017-03-31T01:32:52.518Z,82
2017-03-31T01:33:52.188Z,82
2017-03-31T01:34:52.172Z,81
2017-03-31T01:35:52.480Z,80
2017-03-31T01:36:52.146Z,84
2017-03-31T01:37:52.144Z,85
2017-03-31T01:38:52.486Z,85
2017-03-31T01:39:52.420Z,84
2017-03-31T01:40:52.411Z,84
2017-03-31T01:41:52.402Z,80
2017-03-31T01:42:52.387Z,83
2017-03-31T01:43:52.376Z,85
2017-03-31T01:44:52.359Z,85
2017-03-31T01:45:52.346Z,85
2017-03-31T01:46:52.333Z,82
2017-03-31T01:47:52.349Z,85
2017-03-31T01:48:52.311Z,81
2017-03-31T01:49:51.988Z,85
2017-03-31T01:50:51.360Z,84
2017-03-31T01:51:51.979Z,83
2017-03-31T01:52:51.957Z,84
2017-03-31T01:53:52.239Z,85
2017-03-31T01:54:52.240Z,80
2017-03-31T01:55:52.218Z,84
2017-03-31T01:56:51.893Z,84
2017-03-31T01:57:52.185Z,83
2017-03-31T01:58:52.191Z,82
2017-03-31T01:59:52.171Z,83
2017-03-31T02:00:51.847Z,81
2017-03-31T02:01:51.829Z,83
2017-03-31T02:02:52.125Z,82
2017-03-31T02:03:52.114Z,83
2017-03-31T02:04:51.784Z,85
2017-03-31T02:05:51.778Z,84
2017-03-31T02:06:51.810Z,85
2017-03-31T02:07:51.754Z,84
2017-03-31T02:08:51.426Z,84
2017-03-31T02:09:51.717Z,85
2017-03-31T02:10:51.712Z,85
2017-03-31T02:11:52.016Z,85
2017-03-31T02:12:52.047Z,83
2017-03-31T02:13:51.662Z,81
2017-03-31T02:14:51.644Z,85
2017-03-31T02:15:51.329Z,84
2017-03-31T02:16:51.646Z,85
2017-03-31T02:17:51.310Z,85
2017-03-31T02:18:51.604Z,82
2017-03-31T02:19:51.590Z,83
2017-03-31T02:20:51.886Z,84
2017-03-31T02:21:51.877Z,84
2017-03-31T02:22:51.558Z,86
2017-03-31T02:23:51.855Z,83
2017-03-31T02:24:51.546Z,85
2017-03-31T02:25:51.206Z,84
2017-03-31T02:26:51.505Z,84
2017-03-31T02:27:51.825Z,82
2017-03-31T02:28:51.514Z,83
2017-03-31T02:29:51.457Z,83
2017-03-31T02:30:51.815Z,85
2017-03-31T02:31:51.432Z,87
2017-03-31T02:32:51.117Z,82
2017-03-31T02:33:51.411Z,81
2017-03-31T02:34:50.769Z,85
2017-03-31T02:35:51.694Z,83
2017-03-31T02:36:51.679Z,85
2017-03-31T02:37:51.035Z,83
2017-03-31T02:38:51.667Z,83
2017-03-31T02:39:51.668Z,84
2017-03-31T02:40:51.828Z,83
2017-03-31T02:41:51.307Z,85
2017-03-31T02:42:51.655Z,85
2017-03-31T02:43:51.273Z,85
2017-03-31T02:44:51.261Z,85
2017-03-31T02:45:51.250Z,85
2017-03-31T02:46:51.548Z,85
2017-03-31T02:47:51.215Z,85
2017-03-31T02:48:51.198Z,85
2017-03-31T02:49:51.200Z,85
2017-03-31T02:50:51.182Z,83
2017-03-31T02:51:51.169Z,83
2017-03-31T02:52:51.153Z,83
2017-03-31T02:53:51.446Z,83
2017-03-31T02:54:51.131Z,83
2017-03-31T02:55:51.434Z,83
2017-03-31T02:56:51.116Z,85
2017-03-31T02:57:51.403Z,84
2017-03-31T02:58:51.073Z,84
2017-03-31T02:59:51.365Z,87
2017-03-31T03:00:51.081Z,87
2017-03-31T03:01:51.087Z,82
2017-03-31T03:02:51.330Z,83
2017-03-31T03:03:51.322Z,87
2017-03-31T03:04:50.689Z,85
2017-03-31T03:05:50.981Z,85
2017-03-31T03:06:51.476Z,86
2017-03-31T03:07:51.261Z,84
2017-03-31T03:08:50.929Z,84
2017-03-31T03:09:50.915Z,84
2017-03-31T03:10:51.274Z,84
2017-03-31T03:11:51.204Z,84
2017-03-31T03:12:51.187Z,85
2017-03-31T03:13:50.568Z,84
2017-03-31T03:14:51.167Z,83
2017-03-31T03:15:50.841Z,82
2017-03-31T03:16:50.831Z,87
2017-03-31T03:17:50.829Z,87
2017-03-31T03:18:51.126Z,85
2017-03-31T03:19:51.154Z,84
2017-03-31T03:20:51.091Z,84
2017-03-31T03:21:51.076Z,86
2017-03-31T03:22:50.746Z,84
2017-03-31T03:23:50.758Z,84
2017-03-31T03:24:50.942Z,87
2017-03-31T03:25:50.729Z,86
2017-03-31T03:26:51.017Z,85
2017-03-31T03:27:50.676Z,87
2017-03-31T03:28:50.971Z,84
2017-03-31T03:29:50.959Z,85
2017-03-31T03:30:50.632Z,83
2017-03-31T03:31:50.928Z,82
2017-03-31T03:32:50.498Z,84
2017-03-31T03:33:50.905Z,85
2017-03-31T03:34:50.887Z,82
2017-03-31T03:35:50.879Z,85
2017-03-31T03:36:50.861Z,86
2017-03-31T03:37:50.848Z,83
2017-03-31T03:38:50.835Z,86
2017-03-31T03:39:50.834Z,87
2017-03-31T03:40:50.497Z,86
2017-03-31T03:41:50.798Z,84
2017-03-31T03:42:50.777Z,83
2017-03-31T03:43:50.765Z,84
2017-03-31T03:44:50.133Z,83
2017-03-31T03:45:50.748Z,87
2017-03-31T03:46:50.411Z,83
2017-03-31T03:47:50.399Z,87
2017-03-31T03:48:50.701Z,87
2017-03-31T03:49:50.686Z,86
2017-03-31T03:50:50.664Z,88
2017-03-31T03:51:50.342Z,85
2017-03-31T03:52:50.639Z,87
2017-03-31T03:53:50.631Z,87
2017-03-31T03:54:50.636Z,85
2017-03-31T03:55:50.600Z,83
2017-03-31T03:56:50.591Z,88
2017-03-31T03:57:50.574Z,84
2017-03-31T03:58:50.566Z,86
2017-03-31T03:59:50.283Z,84
2017-03-31T04:00:50.235Z,84
2017-03-31T04:01:50.205Z,83
2017-03-31T04:02:50.510Z,86
2017-03-31T04:03:50.498Z,84
2017-03-31T04:04:50.480Z,85
2017-03-31T04:05:50.466Z,88
2017-03-31T04:06:50.133Z,87
2017-03-31T04:07:50.125Z,87
2017-03-31T04:08:50.415Z,88
2017-03-31T04:09:50.094Z,84
2017-03-31T04:10:50.090Z,85
2017-03-31T04:11:49.795Z,87
2017-03-31T04:12:50.048Z,87
2017-03-31T04:13:49.724Z,84
2017-03-31T04:14:50.341Z,84
2017-03-31T04:15:50.323Z,87
2017-03-31T04:16:50.313Z,87
2017-03-31T04:17:50.292Z,85
2017-03-31T04:18:50.278Z,88
2017-03-31T04:19:50.285Z,87
2017-03-31T04:20:50.254Z,83
2017-03-31T04:21:50.275Z,87
2017-03-31T04:22:50.233Z,88
2017-03-31T04:23:49.893Z,87
2017-03-31T04:24:49.889Z,85
2017-03-31T04:25:50.181Z,84
2017-03-31T04:26:49.234Z,88
2017-03-31T04:27:49.226Z,85
2017-03-31T04:28:50.146Z,85
2017-03-31T04:29:50.140Z,84
2017-03-31T04:30:50.115Z,85
2017-03-31T04:31:49.472Z,88
2017-03-31T04:32:50.086Z,89
2017-03-31T04:33:49.764Z,84
2017-03-31T04:34:49.754Z,87
2017-03-31T04:35:49.733Z,85
2017-03-31T04:36:49.737Z,88
2017-03-31T04:37:49.704Z,84
2017-03-31T04:38:49.689Z,85
2017-03-31T04:39:49.988Z,85
2017-03-31T04:40:50.173Z,88
2017-03-31T04:41:49.644Z,88
2017-03-31T04:42:49.939Z,87
2017-03-31T04:43:49.329Z,88
2017-03-31T04:44:49.929Z,88
2017-03-31T04:45:49.593Z,85
2017-03-31T04:46:49.946Z,88
2017-03-31T04:47:49.252Z,87
2017-03-31T04:48:49.269Z,89
2017-03-31T04:49:49.532Z,86
2017-03-31T04:50:49.515Z,85
2017-03-31T04:51:49.497Z,89
2017-03-31T04:52:49.805Z,86
2017-03-31T04:53:49.515Z,88
2017-03-31T04:54:49.810Z,85
2017-03-31T04:55:49.132Z,89
2017-03-31T04:56:49.752Z,86
2017-03-31T04:57:49.736Z,86
2017-03-31T04:58:49.734Z,89
2017-03-31T04:59:49.755Z,88
2017-03-31T05:00:49.728Z,86
2017-03-31T05:01:49.883Z,86
2017-03-31T05:02:49.036Z,88
2017-03-31T05:03:49.650Z,86
2017-03-31T05:04:49.319Z,88
2017-03-31T05:05:49.364Z,88
2017-03-31T05:06:49.287Z,86
2017-03-31T05:07:49.679Z,85
2017-03-31T05:08:49.264Z,86
2017-03-31T05:09:48.971Z,89
2017-03-31T05:10:49.754Z,89
2017-03-31T05:11:49.224Z,89
2017-03-31T05:12:49.719Z,89
2017-03-31T05:13:49.503Z,86
2017-03-31T05:14:49.486Z,90
2017-03-31T05:15:49.159Z,87
2017-03-31T05:16:49.387Z,87
2017-03-31T05:17:49.139Z,89
2017-03-31T05:18:49.123Z,87
2017-03-31T05:19:49.423Z,87
2017-03-31T05:20:49.416Z,87
2017-03-31T05:21:49.082Z,88
2017-03-31T05:22:49.060Z,89
2017-03-31T05:23:48.429Z,87
2017-03-31T05:24:49.052Z,88
2017-03-31T05:25:48.703Z,85
2017-03-31T05:26:49.011Z,89
2017-03-31T05:27:48.677Z,87
2017-03-31T05:28:49.292Z,86
2017-03-31T05:29:48.339Z,89
2017-03-31T05:30:49.266Z,90
2017-03-31T05:31:49.286Z,87
2017-03-31T05:32:48.920Z,88
2017-03-31T05:33:48.918Z,85
2017-03-31T05:34:48.579Z,88
2017-03-31T05:35:49.195Z,89
2017-03-31T05:36:49.171Z,88
2017-03-31T05:37:48.535Z,87
2017-03-31T05:38:49.148Z,89
2017-03-31T05:39:49.138Z,87
2017-03-31T05:40:48.823Z,89
2017-03-31T05:41:48.797Z,90
2017-03-31T05:42:48.784Z,89
2017-03-31T05:43:49.077Z,90
2017-03-31T05:44:49.065Z,91
2017-03-31T05:45:49.259Z,88
2017-03-31T05:46:48.769Z,89
2017-03-31T05:47:49.028Z,91
2017-03-31T05:48:48.751Z,87
2017-03-31T05:49:48.989Z,88
2017-03-31T05:50:49.044Z,89
2017-03-31T05:51:48.970Z,89
2017-03-31T05:52:48.958Z,87
2017-03-31T05:53:48.309Z,90
2017-03-31T05:54:48.335Z,86
2017-03-31T05:55:48.923Z,86
2017-03-31T05:56:48.584Z,86
2017-03-31T05:57:48.308Z,88
2017-03-31T05:58:48.870Z,90
2017-03-31T05:59:48.868Z,89
2017-03-31T06:00:48.847Z,87
2017-03-31T06:01:48.836Z,87
2017-03-31T06:02:48.514Z,86
2017-03-31T06:03:48.180Z,89
2017-03-31T06:04:48.488Z,88
2017-03-31T06:05:48.160Z,90
2017-03-31T06:06:48.765Z,90
2017-03-31T06:07:48.455Z,90
2017-03-31T06:08:48.432Z,91
2017-03-31T06:09:48.416Z,91
2017-03-31T06:10:48.723Z,91
2017-03-31T06:11:48.069Z,88
2017-03-31T06:12:48.680Z,86
2017-03-31T06:13:48.359Z,91
2017-03-31T06:14:48.654Z,87
2017-03-31T06:15:48.332Z,87
2017-03-31T06:16:48.326Z,91
2017-03-31T06:17:48.310Z,92
2017-03-31T06:18:47.976Z,88
2017-03-31T06:19:48.600Z,87
2017-03-31T06:20:48.274Z,91
2017-03-31T06:21:48.559Z,92
2017-03-31T06:22:48.237Z,90
2017-03-31T06:23:48.220Z,92
2017-03-31T06:24:48.212Z,90
2017-03-31T06:25:48.197Z,90
2017-03-31T06:26:48.242Z,92
2017-03-31T06:27:48.476Z,86
2017-03-31T06:28:48.477Z,91
2017-03-31T06:29:48.472Z,87
2017-03-31T06:30:48.140Z,91
2017-03-31T06:31:48.449Z,91
2017-03-31T06:32:48.439Z,91
2017-03-31T06:33:48.096Z,86
2017-03-31T06:34:48.389Z,88
2017-03-31T06:35:48.397Z,91
2017-03-31T06:36:48.370Z,92
2017-03-31T06:37:48.053Z,92
2017-03-31T06:38:48.333Z,92
2017-03-31T06:39:48.335Z,88
2017-03-31T06:40:48.517Z,87
2017-03-31T06:41:48.302Z,92
2017-03-31T06:42:48.294Z,91
2017-03-31T06:43:47.666Z,90
2017-03-31T06:44:47.330Z,88
2017-03-31T06:45:48.255Z,91
2017-03-31T06:46:46.991Z,87
2017-03-31T06:47:47.933Z,92
2017-03-31T06:48:48.221Z,86
2017-03-31T06:49:48.233Z,88
2017-03-31T06:50:47.569Z,88
2017-03-31T06:51:48.186Z,92
2017-03-31T06:52:48.173Z,88
2017-03-31T06:53:48.158Z,88
2017-03-31T06:54:48.144Z,87
2017-03-31T06:55:48.134Z,91
2017-03-31T06:56:48.124Z,91
2017-03-31T06:57:47.795Z,92
2017-03-31T06:58:48.144Z,88
2017-03-31T06:59:48.085Z,93
2017-03-31T07:00:47.444Z,88
2017-03-31T07:01:48.066Z,91
2017-03-31T07:02:47.738Z,91
2017-03-31T07:03:47.472Z,91
2017-03-31T07:04:47.719Z,90
2017-03-31T07:05:48.024Z,90
2017-03-31T07:06:47.380Z,92
2017-03-31T07:07:47.999Z,93
2017-03-31T07:08:47.666Z,88
2017-03-31T07:09:47.671Z,88
2017-03-31T07:10:47.654Z,92
2017-03-31T07:11:47.650Z,91
2017-03-31T07:12:47.637Z,91
2017-03-31T07:13:47.614Z,91
2017-03-31T07:14:47.618Z,87
2017-03-31T07:15:47.905Z,86
2017-03-31T07:16:47.916Z,91
2017-03-31T07:17:47.883Z,91
2017-03-31T07:18:47.873Z,88
2017-03-31T07:19:48.061Z,93
2017-03-31T07:20:47.544Z,93
2017-03-31T07:21:47.850Z,87
2017-03-31T07:22:47.889Z,90
2017-03-31T07:23:47.821Z,88
2017-03-31T07:24:47.499Z,88
2017-03-31T07:25:47.843Z,91
2017-03-31T07:26:47.791Z,88
2017-03-31T07:27:47.464Z,87
2017-03-31T07:28:47.795Z,91
2017-03-31T07:29:47.489Z,88
2017-03-31T07:30:47.484Z,87
2017-03-31T07:31:47.426Z,93
2017-03-31T07:32:47.724Z,92
2017-03-31T07:33:47.714Z,86
2017-03-31T07:34:47.704Z,88
2017-03-31T07:35:47.385Z,92
2017-03-31T07:36:47.684Z,89
2017-03-31T07:37:47.674Z,92
2017-03-31T07:38:47.352Z,87
2017-03-31T07:39:47.660Z,87
2017-03-31T07:40:47.328Z,92
2017-03-31T07:41:47.631Z,88
2017-03-31T07:42:47.627Z,93
2017-03-31T07:43:47.614Z,88
2017-03-31T07:44:47.600Z,93
2017-03-31T07:45:46.971Z,87
2017-03-31T07:46:47.447Z,91
2017-03-31T07:47:47.291Z,92
2017-03-31T07:48:47.592Z,87
2017-03-31T07:49:46.935Z,87
2017-03-31T07:50:47.242Z,87
2017-03-31T07:51:47.539Z,93
2017-03-31T07:52:47.209Z,89
2017-03-31T07:53:47.519Z,93
2017-03-31T07:54:47.193Z,91
2017-03-31T07:55:46.878Z,91
2017-03-31T07:56:47.504Z,92
2017-03-31T07:57:47.529Z,87
2017-03-31T07:58:47.153Z,90
2017-03-31T07:59:47.517Z,86
2017-03-31T08:00:47.445Z,92
2017-03-31T08:01:47.142Z,87
2017-03-31T08:02:47.438Z,86
2017-03-31T08:03:47.420Z,87
2017-03-31T08:04:47.118Z,89
2017-03-31T08:05:46.776Z,86
2017-03-31T08:06:47.391Z,93
2017-03-31T08:07:47.417Z,86
2017-03-31T08:08:47.064Z,91
2017-03-31T08:09:47.375Z,93
2017-03-31T08:10:46.769Z,87
2017-03-31T08:11:46.730Z,88
2017-03-31T08:12:47.028Z,88
2017-03-31T08:13:46.699Z,87
2017-03-31T08:14:47.340Z,86
2017-03-31T08:15:47.000Z,86
2017-03-31T08:16:47.003Z,88
2017-03-31T08:17:46.975Z,86
2017-03-31T08:18:47.295Z,91
2017-03-31T08:19:47.284Z,87
2017-03-31T08:20:47.272Z,86
2017-03-31T08:21:47.263Z,86
2017-03-31T08:22:47.274Z,92
2017-03-31T08:23:47.278Z,85
2017-03-31T08:24:46.927Z,86
2017-03-31T08:25:46.927Z,86
2017-03-31T08:26:46.606Z,84
2017-03-31T08:27:46.923Z,91
2017-03-31T08:28:47.216Z,92
2017-03-31T08:29:47.204Z,93
2017-03-31T08:30:46.876Z,91
2017-03-31T08:31:47.199Z,91
2017-03-31T08:32:47.180Z,85
2017-03-31T08:33:46.855Z,85
2017-03-31T08:34:46.540Z,85
2017-03-31T08:35:46.883Z,85
2017-03-31T08:36:46.847Z,85
2017-03-31T08:37:46.847Z,85
2017-03-31T08:38:47.141Z,92
2017-03-31T08:39:46.532Z,85
2017-03-31T08:40:47.012Z,91
2017-03-31T08:41:47.128Z,84
2017-03-31T08:42:47.133Z,85
2017-03-31T08:43:46.480Z,90
2017-03-31T08:44:47.161Z,84
2017-03-31T08:45:47.095Z,90
2017-03-31T08:46:46.780Z,92
2017-03-31T08:47:46.149Z,91
2017-03-31T08:48:46.453Z,92
2017-03-31T08:49:46.774Z,84
2017-03-31T08:50:46.759Z,84
2017-03-31T08:51:46.425Z,88
2017-03-31T08:52:46.759Z,84
2017-03-31T08:53:47.043Z,91
2017-03-31T08:54:47.238Z,83
2017-03-31T08:55:47.033Z,90
2017-03-31T08:56:47.030Z,84
2017-03-31T08:57:46.701Z,89
2017-03-31T08:58:46.384Z,88
2017-03-31T08:59:47.008Z,91
2017-03-31T09:00:46.993Z,83
2017-03-31T09:01:46.379Z,89
2017-03-31T09:02:46.675Z,82
2017-03-31T09:03:46.345Z,87
2017-03-31T09:04:46.656Z,85
2017-03-31T09:05:46.973Z,86
2017-03-31T09:06:46.658Z,89
2017-03-31T09:07:47.011Z,84
2017-03-31T09:08:47.015Z,82
2017-03-31T09:09:46.674Z,84
2017-03-31T09:10:46.978Z,90
2017-03-31T09:11:46.927Z,84
2017-03-31T09:12:46.922Z,89
2017-03-31T09:13:46.904Z,83
2017-03-31T09:14:46.588Z,83
2017-03-31T09:15:46.916Z,86
2017-03-31T09:16:46.948Z,83
2017-03-31T09:17:45.945Z,89
2017-03-31T09:18:46.916Z,83
2017-03-31T09:19:46.564Z,86
2017-03-31T09:20:46.758Z,82
2017-03-31T09:21:46.551Z,83
2017-03-31T09:22:46.548Z,87
2017-03-31T09:23:46.910Z,82
2017-03-31T09:24:46.543Z,83
2017-03-31T09:25:46.842Z,82
2017-03-31T09:26:46.892Z,81
2017-03-31T09:27:46.532Z,81
2017-03-31T09:28:46.507Z,88
2017-03-31T09:29:46.516Z,90
2017-03-31T09:30:46.816Z,82
2017-03-31T09:31:46.812Z,87
2017-03-31T09:32:46.804Z,90
2017-03-31T09:33:46.486Z,82
2017-03-31T09:34:46.168Z,88
2017-03-31T09:35:46.469Z,88
2017-03-31T09:36:46.782Z,82
2017-03-31T09:37:46.471Z,88
2017-03-31T09:38:46.771Z,85
2017-03-31T09:39:46.967Z,85
2017-03-31T09:40:46.467Z,81
2017-03-31T09:41:46.448Z,81
2017-03-31T09:42:46.133Z,83
2017-03-31T09:43:46.124Z,89
2017-03-31T09:44:45.535Z,87
2017-03-31T09:45:46.729Z,81
2017-03-31T09:46:46.732Z,82
2017-03-31T09:47:46.413Z,80
2017-03-31T09:48:46.406Z,79
2017-03-31T09:49:46.404Z,85
2017-03-31T09:50:46.722Z,80
2017-03-31T09:51:46.716Z,79
2017-03-31T09:52:46.701Z,86
2017-03-31T09:53:46.690Z,88
2017-03-31T09:54:46.373Z,78
2017-03-31T09:55:46.688Z,85
2017-03-31T09:56:46.684Z,83
2017-03-31T09:57:46.367Z,78
2017-03-31T09:58:45.733Z,86
2017-03-31T09:59:46.678Z,79
2017-03-31T10:00:46.667Z,87
2017-03-31T10:01:46.657Z,83
2017-03-31T10:02:46.370Z,82
2017-03-31T10:03:46.653Z,87
2017-03-31T10:04:46.028Z,79
2017-03-31T10:05:46.036Z,88
2017-03-31T10:06:46.332Z,88
2017-03-31T10:07:46.331Z,79
2017-03-31T10:08:46.631Z,89
2017-03-31T10:09:46.304Z,86
2017-03-31T10:10:46.626Z,80
2017-03-31T10:11:46.609Z,78
2017-03-31T10:12:46.627Z,92
2017-03-31T10:13:46.599Z,87
2017-03-31T10:14:46.286Z,77
2017-03-31T10:15:46.597Z,79
2017-03-31T10:16:46.276Z,86
2017-03-31T10:17:46.605Z,80
2017-03-31T10:18:46.576Z,79
2017-03-31T10:19:46.584Z,79
2017-03-31T10:20:46.259Z,88
2017-03-31T10:21:46.349Z,77
2017-03-31T10:22:46.247Z,79
2017-03-31T10:23:46.563Z,78
2017-03-31T10:24:46.243Z,83
2017-03-31T10:25:46.243Z,81
2017-03-31T10:26:46.553Z,86
2017-03-31T10:27:46.547Z,77
2017-03-31T10:28:46.216Z,78
2017-03-31T10:29:46.216Z,80
2017-03-31T10:30:46.213Z,79
2017-03-31T10:31:46.531Z,86
2017-03-31T10:32:46.519Z,86
2017-03-31T10:33:46.511Z,83
2017-03-31T10:34:45.881Z,78
2017-03-31T10:35:45.880Z,87
2017-03-31T10:36:46.188Z,85
2017-03-31T10:37:46.179Z,76
2017-03-31T10:38:46.489Z,85
2017-03-31T10:39:46.498Z,86
2017-03-31T10:40:46.253Z,78
2017-03-31T10:41:46.680Z,85
2017-03-31T10:42:46.510Z,85
2017-03-31T10:43:46.190Z,77
2017-03-31T10:44:46.157Z,78
2017-03-31T10:45:46.156Z,78
2017-03-31T10:46:45.839Z,86
2017-03-31T10:47:46.450Z,79
2017-03-31T10:48:46.132Z,76
2017-03-31T10:49:46.143Z,76
2017-03-31T10:50:46.131Z,80
2017-03-31T10:51:46.117Z,86
2017-03-31T10:52:45.798Z,86
2017-03-31T10:53:46.141Z,86
2017-03-31T10:54:46.102Z,86
2017-03-31T10:55:46.120Z,86
2017-03-31T10:56:45.844Z,80
2017-03-31T10:57:46.104Z,84
2017-03-31T10:58:46.139Z,85
2017-03-31T10:59:46.406Z,85
2017-03-31T11:00:46.081Z,77
2017-03-31T11:01:46.393Z,81
2017-03-31T11:02:45.759Z,84
2017-03-31T11:03:45.756Z,84
2017-03-31T11:04:46.066Z,77
2017-03-31T11:05:46.307Z,75
2017-03-31T11:06:46.379Z,85
2017-03-31T11:07:46.369Z,86
2017-03-31T11:08:46.357Z,79
2017-03-31T11:09:45.755Z,77
2017-03-31T11:10:45.425Z,87
2017-03-31T11:11:46.362Z,84
2017-03-31T11:12:46.354Z,76
2017-03-31T11:13:46.378Z,78
2017-03-31T11:14:46.019Z,74
2017-03-31T11:15:46.024Z,75
2017-03-31T11:16:46.332Z,76
2017-03-31T11:17:45.704Z,83
2017-03-31T11:18:46.312Z,76
2017-03-31T11:19:46.001Z,78
2017-03-31T11:20:46.003Z,81
2017-03-31T11:21:45.991Z,80
2017-03-31T11:22:46.008Z,77
2017-03-31T11:23:46.341Z,85
2017-03-31T11:24:46.296Z,87
2017-03-31T11:25:46.179Z,86
2017-03-31T11:26:45.972Z,87
2017-03-31T11:27:46.340Z,78
2017-03-31T11:28:45.979Z,78
2017-03-31T11:29:46.278Z,77
2017-03-31T11:30:46.295Z,87
2017-03-31T11:31:45.991Z,74
2017-03-31T11:32:45.640Z,79
2017-03-31T11:33:45.640Z,76
2017-03-31T11:34:45.952Z,84
2017-03-31T11:35:46.317Z,83
2017-03-31T11:36:45.953Z,75
2017-03-31T11:37:45.646Z,70
2017-03-31T11:38:46.260Z,83
2017-03-31T11:39:45.945Z,71
2017-03-31T11:40:46.265Z,68
2017-03-31T11:41:45.318Z,70
2017-03-31T11:42:45.647Z,78
2017-03-31T11:43:45.965Z,67
2017-03-31T11:44:46.275Z,67
2017-03-31T11:45:46.259Z,66
2017-03-31T11:46:46.254Z,75
2017-03-31T11:47:45.628Z,77
2017-03-31T11:48:45.628Z,72
2017-03-31T11:49:45.948Z,60
2017-03-31T11:50:46.248Z,62
2017-03-31T11:51:46.304Z,65
2017-03-31T11:52:45.939Z,65
2017-03-31T11:53:45.639Z,67
2017-03-31T11:54:46.271Z,69
2017-03-31T11:55:45.948Z,61
2017-03-31T11:56:46.263Z,73
2017-03-31T11:57:45.631Z,63
2017-03-31T11:58:46.258Z,63
2017-03-31T11:59:46.271Z,72
2017-03-31T12:00:45.669Z,77
2017-03-31T12:01:45.956Z,74
2017-03-31T12:02:46.263Z,100
2017-03-31T12:03:46.260Z,100
2017-03-31T12:04:46.258Z,94
2017-03-31T12:05:45.954Z,100
2017-03-31T12:06:45.656Z,76
2017-03-31T12:07:45.945Z,73
2017-03-31T12:08:45.634Z,73
2017-03-31T12:09:46.265Z,72
2017-03-31T12:10:45.945Z,100
2017-03-31T12:11:45.952Z,93
2017-03-31T12:12:45.631Z,100
2017-03-31T12:13:46.258Z,100
2017-03-31T12:14:45.955Z,65
2017-03-31T12:15:45.945Z,66
2017-03-31T12:16:45.356Z,91
2017-03-31T12:17:45.639Z,67
2017-03-31T12:18:45.643Z,93
2017-03-31T12:19:45.948Z,100
2017-03-31T12:20:45.955Z,60
2017-03-31T12:21:45.651Z,92
2017-03-31T12:22:45.953Z,100
2017-03-31T12:23:45.323Z,84
2017-03-31T12:24:46.266Z,51
2017-03-31T12:25:45.635Z,52
2017-03-31T12:26:46.322Z,55
2017-03-31T12:27:46.269Z,84
2017-03-31T12:28:45.645Z,100
2017-03-31T12:29:46.488Z,90
2017-03-31T12:30:45.659Z,96
2017-03-31T12:31:45.966Z,81
2017-03-31T12:32:46.278Z,85
2017-03-31T12:33:46.480Z,47
2017-03-31T12:34:45.995Z,76
2017-03-31T12:35:46.286Z,100
2017-03-31T12:36:46.285Z,45
2017-03-31T12:37:46.278Z,50
2017-03-31T12:38:45.657Z,77
2017-03-31T12:39:46.295Z,100
2017-03-31T12:40:46.315Z,47
2017-03-31T12:41:46.714Z,100
2017-03-31T12:42:45.994Z,100
2017-03-31T12:43:45.993Z,100
2017-03-31T12:44:46.003Z,75
2017-03-31T12:45:46.314Z,49
2017-03-31T12:46:46.002Z,93
2017-03-31T12:47:46.022Z,94
2017-03-31T12:48:46.299Z,58
2017-03-31T12:49:45.993Z,98
2017-03-31T12:50:45.998Z,100
2017-03-31T12:51:45.684Z,100
2017-03-31T12:52:45.689Z,100
2017-03-31T12:53:46.001Z,31
2017-03-31T12:54:46.328Z,67
2017-03-31T12:55:46.020Z,100
2017-03-31T12:56:46.008Z,75
2017-03-31T12:57:46.332Z,100
2017-03-31T12:58:46.325Z,91
2017-03-31T12:59:46.333Z,75
2017-03-31T13:00:46.339Z,89
2017-03-31T13:01:46.034Z,50
2017-03-31T13:02:46.026Z,54
2017-03-31T13:03:46.019Z,100
2017-03-31T13:04:46.346Z,100
2017-03-31T13:05:46.343Z,42
2017-03-31T13:06:46.031Z,40
2017-03-31T13:07:46.347Z,42
2017-03-31T13:08:46.035Z,44
2017-03-31T13:09:45.775Z,45
2017-03-31T13:10:46.066Z,93
2017-03-31T13:11:46.039Z,100
2017-03-31T13:12:46.032Z,100
2017-03-31T13:13:46.355Z,98
2017-03-31T13:14:46.365Z,56
2017-03-31T13:15:46.365Z,100
2017-03-31T13:16:46.559Z,77
2017-03-31T13:17:46.064Z,100
2017-03-31T13:18:46.376Z,85
2017-03-31T13:19:46.366Z,42
2017-03-31T13:20:46.637Z,45
2017-03-31T13:21:46.660Z,86
2017-03-31T13:22:46.108Z,52
2017-03-31T13:23:46.387Z,100
2017-03-31T13:24:46.405Z,53
2017-03-31T13:25:46.376Z,100
2017-03-31T13:26:46.378Z,50
2017-03-31T13:27:46.379Z,80
2017-03-31T13:28:46.070Z,79
2017-03-31T13:29:46.387Z,59
2017-03-31T13:30:46.379Z,78
2017-03-31T13:31:46.072Z,64
2017-03-31T13:32:46.401Z,68
2017-03-31T13:33:46.467Z,41
2017-03-31T13:34:46.387Z,41
2017-03-31T13:35:46.394Z,40
2017-03-31T13:36:46.384Z,52
2017-03-31T13:37:46.383Z,62
2017-03-31T13:38:46.388Z,63
2017-03-31T13:39:46.456Z,32
2017-03-31T13:40:46.388Z,67
2017-03-31T13:41:46.073Z,63
2017-03-31T13:42:46.379Z,45
2017-03-31T13:43:46.377Z,33
2017-03-31T13:44:46.392Z,67
2017-03-31T13:45:46.381Z,56
2017-03-31T13:46:46.069Z,39
2017-03-31T13:47:46.058Z,31
2017-03-31T13:48:46.374Z,54
2017-03-31T13:49:46.379Z,31
2017-03-31T13:50:46.069Z,63
2017-03-31T13:51:46.387Z,59
2017-03-31T13:52:46.399Z,28
2017-03-31T13:53:45.757Z,53
2017-03-31T13:54:46.432Z,64
2017-03-31T13:55:46.374Z,31
2017-03-31T13:56:46.063Z,53
2017-03-31T13:57:46.172Z,63
2017-03-31T13:58:46.381Z,59
2017-03-31T13:59:45.757Z,31
2017-03-31T14:00:46.388Z,47
2017-03-31T14:01:46.378Z,39
2017-03-31T14:02:46.373Z,53
2017-03-31T14:03:46.072Z,35
2017-03-31T14:04:46.382Z,38
2017-03-31T14:05:46.376Z,49
2017-03-31T14:06:46.376Z,43
2017-03-31T14:07:46.576Z,53
2017-03-31T14:08:46.058Z,62
2017-03-31T14:09:46.366Z,37
2017-03-31T14:10:46.399Z,46
2017-03-31T14:11:46.422Z,61
2017-03-31T14:12:46.049Z,56
2017-03-31T14:13:46.057Z,63
2017-03-31T14:14:46.369Z,45